Tous vos exploits sur  Logo Planète Marathon le site 100% Marathon

Midnight Sun Marathon (Norvège)              Donnez votre avis sur l'édition 2018

Le 16/06/2018 - Edition 2018 - 973 arrivants.                                                       

Clmt. Temps Nom Prénom Club Organisme Catégorie
1 2:23:00 Abdulaziz Ebrahim (NOR) M40-44 (+)
2 2:25:30 Frew Zenebe Brkineh (NOR) M18-34 (+)
3 2:51:02 Fiedler Benjamin (USA) M18-34 (+)
4 2:51:22 Den Hollander Wouter (NED) M18-34 (+)
5 2:52:00 Mortensen Henning (NOR) M35-39 (+)
6 2:52:31 Colpitts Cameron (USA) M35-39 (+)
7 2:52:46 Sorin Louis (FRA) M18-34 (+)
8 2:56:43 Christie Allan (GBR) M35-39 (+)
9 2:57:54 Edwards Byron (GBR) M40-44 (+)
10 2:58:08 Hall David (GBR) M35-39 (+)
11 2:58:29 Simonsen Lars-christian (NOR) M18-34 (+)
12 2:59:15 Wathne Andreas (NOR) M18-34 (+)
13 3:02:00 Chillakuru Yeshwant (USA) M18-34 (+)
14 3:03:27 Van Havermaet Koen (BEL) M18-34 (+)
15 3:03:57 Torbjornsen Anders (NOR) M40-44 (+)
16 3:05:02 Martino Phillip (USA) M40-44 (+)
17 3:07:39 Brenchley Christopher (GBR) M45-49 (+)
18 3:08:23 Sciranko Jozef (SVK) M55-59 (+)
19 3:08:54 Dash Shishir (IND) M18-34 (+)
20 3:09:31 Donnem Marianne (NOR) F45-49 (+)
21 3:09:48 Le Mesle Aymerick (FRA) M18-34 (+)
22 3:10:30 Magnussen Christian (NOR) M18-34 (+)
23 3:10:36 Primdahl Ebbe (DEN) M50-54 (+)
24 3:11:56 Roziau Samuel (FRA) M18-34 (+)
25 3:12:17 Eckhardt Simen (NOR) M18-34 (+)
26 3:13:02 Kieffer Yann (NOR) M18-34 (+)
27 3:13:36 Panagiotopoulos Nikolaos (GRE) M40-44 (+)
28 3:14:27 Sims Matt (GBR) M18-34 (+)
29 3:14:35 Van Rijswijck Pit (NOR) M18-34 (+)
30 3:14:39 Riddell Lars (GBR) M18-34 (+)
31 3:15:34 Pedersen Thomas (NOR) M40-44 (+)
32 3:15:48 Bergersen Erik (NOR) M18-34 (+)
33 3:16:21 Ingar Richardsen Liaset (NOR) M18-34 (+)
34 3:16:38 D'silva Andres (NOR) M18-34 (+)
35 3:16:41 Soderlund Oscar (SWE) M18-34 (+)
36 3:16:52 Jachimowicz Bartosz (POL) M18-34 (+)
37 3:17:19 Govier Rhys (GBR) M18-34 (+)
38 3:17:22 Tourne Wilfried (FRA) M40-44 (+)
39 3:17:46 Quarrell Dan (GBR) M18-34 (+)
40 3:18:04 Dave Subodh (GBR) M50-54 (+)
41 3:18:06 Falk Therese (NOR) F40-44 (+)
42 3:18:17 Lavergne Fabien (FRA) M35-39 (+)
43 3:18:18 Gueiros Carlos (BRA) M40-44 (+)
44 3:19:01 Haymes Martin (GBR) M35-39 (+)
45 3:19:03 Wang Oyvind (NOR) M45-49 (+)
46 3:19:26 Indrek Heinla (EST) M18-34 (+)
47 3:19:53 Strand-johansen Tobias (NOR) M18-34 (+)
48 3:20:06 Per Gaute Pettersen (NOR) M50-54 (+)
49 3:20:19 Markus Bjorkli Jansen (NOR) M18-34 (+)
50 3:20:27 Mortsell Ruben (NOR) M18-34 (+)
51 3:20:42 Rousell Andy (GBR) M40-44 (+)
52 3:20:47 Otrok Chris (USA) M45-49 (+)
53 3:21:19 Roxburgh Campbell (GBR) M35-39 (+)
54 3:21:41 Jones Eric (AUS) M18-34 (+)
55 3:21:57 Frigstad Mads (NOR) M18-34 (+)
56 3:21:59 De Ruijter Dennis (NED) M18-34 (+)
57 3:22:09 Pedersen Per-christian (NOR) M18-34 (+)
58 3:22:41 Hine Gethin (GBR) M18-34 (+)
59 3:22:43 Drew Kristian (NOR) M18-34 (+)
60 3:23:08 Jon Marius Ophus (NOR) M18-34 (+)
61 3:23:22 Grzech Krzysztof (POL) M40-44 (+)
62 3:23:23 Hayman David (GBR) M18-34 (+)
63 3:23:25 Pochopien Robert (POL) M40-44 (+)
64 3:23:51 Karl Markus Laudon (SWE) M35-39 (+)
65 3:23:51 Oye Per-arne (NOR) M18-34 (+)
66 3:23:56 Wind Peter (NOR) M50-54 (+)
67 3:23:56 Grendova Andrea (SVK) F45-49 (+)
68 3:24:28 Joaquim Epimenio Oliveira (POR) M50-54 (+)
69 3:24:30 Bjareborn Christoffer (SWE) M40-44 (+)
70 3:24:45 Salter Dan (GBR) M18-34 (+)
71 3:24:46 Khashko Olena (UKR) F18-34 (+)
72 3:25:00 Brettle Kevin (GBR) M45-49 (+)
73 3:25:14 Banks Colin (AUS) M45-49 (+)
74 3:25:14 Andreassen Reidun (NOR) F18-34 (+)
75 3:25:33 Underhill Rob (GBR) M35-39 (+)
76 3:25:48 Lodewijk Niels (NED) M35-39 (+)
77 3:26:03 Marsac Pascal (FRA) M45-49 (+)
78 3:26:19 Thomas Darren (GBR) M40-44 (+)
79 3:26:20 Rocaboy Christian (FRA) M50-54 (+)
80 3:26:22 Kibsgaard-petersen Dag (NOR) M45-49 (+)
81 3:26:23 Rotty Rien (BEL) M18-34 (+)
82 3:26:50 Herviou Vincent (FRA) M40-44 (+)
83 3:26:53 Metcalf Andrew (GBR) M35-39 (+)
84 3:27:31 Hinze Marcel (RSA) M18-34 (+)
85 3:27:36 Schmitt Sebastian (GER) M18-34 (+)
86 3:27:36 Lee Dennis (USA) M50-54 (+)
86 3:27:36 Guillaumin Roger (FRA) M/56 (+)
88 3:27:49 Jakimavicius Aurimas (LTU) M18-34 (+)
89 3:28:09 John Paul Hipkin (GBR) M18-34 (+)
90 3:28:13 Van Oyen Freek (NED) M40-44 (+)
91 3:28:18 Angel Garcia Hodar (ESP) M35-39 (+)
92 3:28:27 Sampaio Igor (BRA) M35-39 (+)
93 3:28:29 Palmer Alexander (GBR) M18-34 (+)
94 3:28:30 Easton Sarah (GBR) F18-34 (+)
95 3:28:37 Ole Henrik Bang-andreasen (NOR) M18-34 (+)
96 3:28:41 Hamon Marcel (FRA) M55-59 (+)
97 3:28:42 Trond Arne Liavik (NOR) M45-49 (+)
98 3:28:54 Lokken Tomas (NOR) M40-44 (+)
99 3:28:58 Andreas Lochen Wiig (NOR) M18-34 (+)
100 3:29:16 Richards Matthew (GBR) M18-34 (+)
101 3:29:17 Barge Angus (GBR) M18-34 (+)
102 3:29:39 Marchetti Ezio (ITA) M18-34 (+)
103 3:30:03 Sigve Daae Rasmussen (NOR) M18-34 (+)
104 3:30:03 Goater Thomas (GBR) M35-39 (+)
105 3:30:11 Pin Laurent (FRA) M50-54 (+)
106 3:30:16 Arstad Svein (NOR) M18-34 (+)
107 3:30:17 Mckechnie Philip (GBR) M18-34 (+)
108 3:30:23 Macleod Stephanie (GBR) F18-34 (+)
109 3:30:46 Murray Elliott (GBR) M45-49 (+)
110 3:31:00 Adams Josephine (GBR) F18-34 (+)
111 3:31:17 Skyba Anton (UKR) M18-34 (+)
111 3:31:17 Mario Fucito (ITA) M40-44 (+)
113 3:31:30 Kristine Gjelsvik Ronningen (NOR) F45-49 (+)
114 3:31:36 Magnussen Ketil (NOR) M60-64 (+)
115 3:31:59 Alm Otto (SWE) M18-34 (+)
116 3:32:14 Lavergne Xavier (FRA) M40-44 (+)
117 3:32:28 Bemment Scott (GBR) M45-49 (+)
118 3:32:33 Zawalsky Michael (CAN) M18-34 (+)
119 3:32:36 Reeves Joanne (GBR) F40-44 (+)
120 3:32:37 Colin Jerome (AUS) M45-49 (+)
120 3:32:37 Dick Samual (GBR) M18-34 (+)
122 3:33:15 Gjestemoen Ole (NOR) M40-44 (+)
123 3:33:15 Brown Grahame (GBR) M50-54 (+)
124 3:33:21 Borysova Lina (UKR) F18-34 (+)
125 3:33:28 Carandell Blai (ESP) M18-34 (+)
126 3:33:34 Gough Peter (GBR) M40-44 (+)
127 3:33:39 Halbert John (GBR) M35-39 (+)
128 3:33:50 Herin Fabien (FRA) M55-59 (+)
129 3:34:02 Oksavik Erlend (NOR) M18-34 (+)
130 3:34:22 Toft Ole (DEN) M40-44 (+)
131 3:34:27 Tatton Andrew (GBR) M18-34 (+)
132 3:34:28 Chandler Alexander (GBR) M45-49 (+)
133 3:34:36 Doorduijn Richard (NED) M40-44 (+)
134 3:34:40 Torp Sindre (NOR) M18-34 (+)
135 3:34:47 Sonnleitner Werner (AUT) M18-34 (+)
136 3:34:58 Gutierrez Simon (FRA) M45-49 (+)
137 3:34:58 Rossini Giovanni (ITA) M50-54 (+)
138 3:35:13 Lew Isaac (USA) M18-34 (+)
139 3:35:15 Astrid Fossaa Viga (NOR) F50-54 (+)
140 3:35:41 Williams Guy (GBR) M50-54 (+)
141 3:35:44 Frank-gemmill William (GBR) M35-39 (+)
142 3:35:56 Keysers Patrick (BEL) M50-54 (+)
143 3:36:11 Normoyle Brid (IRL) F40-44 (+)
144 3:36:16 D'silva Allan (NOR) M18-34 (+)
145 3:36:30 Mellem Ola (NOR) M60-64 (+)
146 3:36:31 Skjeggerud Guro (NOR) F45-49 (+)
147 3:36:32 Quairiaux Charles (SUI) M45-49 (+)
148 3:36:33 Udal Nick (GBR) M40-44 (+)
149 3:37:03 Smith Frances (GBR) F18-34 (+)
150 3:37:13 Fannelob Sindre (NOR) M18-34 (+)
151 3:37:17 Pedersen Nikolai (NOR) M18-34 (+)
152 3:37:18 Aaslav-kaasik Henri (EST) M45-49 (+)
153 3:37:24 Tobias Andre Larsen (NOR) M18-34 (+)
154 3:37:46 Minter Nicholas (GBR) M35-39 (+)
155 3:37:49 Toal Stephen (IRL) M55-59 (+)
156 3:37:54 Damm Morten (NOR) M45-49 (+)
157 3:37:55 Newman Sean (USA) M18-34 (+)
158 3:38:08 Fisher Gene (USA) M35-39 (+)
159 3:38:21 Baxter Corinne (GBR) F18-34 (+)
160 3:38:47 Vandesteene Pieter (BEL) M35-39 (+)
161 3:38:53 Simandl Petr (CZE) M40-44 (+)
162 3:38:55 Daubner Jan (CZE) M40-44 (+)
163 3:38:58 Angelo Celso Oliveira E Silva (BRA) M35-39 (+)
164 3:38:59 Secoli Virginia (BRA) F35-39 (+)
165 3:39:09 Delatouche Serge (FRA) M60-64 (+)
166 3:39:13 Faulkner Karl (IRL) M18-34 (+)
167 3:39:18 Marchant Gareth (GBR) M35-39 (+)
168 3:39:21 Martini Stefano (ITA) M35-39 (+)
169 3:39:24 Rens Gert (BEL) M50-54 (+)
170 3:39:56 Sletta Anniken (NOR) F18-34 (+)
171 3:40:01 Tom Eirik Olsen (NOR) M35-39 (+)
172 3:40:07 Addison Neil (GBR) M40-44 (+)
173 3:40:34 Nathan Ahdiv (USA) M18-34 (+)
174 3:40:36 Strozyk Malte (GER) M18-34 (+)
175 3:40:42 Stenvold Nils (NOR) M45-49 (+)
176 3:40:42 Giskes Remco (NED) M40-44 (+)
177 3:40:59 Tippleston Charles (GBR) M50-54 (+)
178 3:41:02 En?s Gaute (NOR) M50-54 (+)
179 3:41:23 Howes Tim (GBR) M40-44 (+)
180 3:41:36 Howes Richard (GBR) M35-39 (+)
181 3:41:40 Giuntini Edouard (FRA) M40-44 (+)
182 3:41:41 Daguzan Gwenaelle (FRA) F40-44 (+)
183 3:41:56 Gormley Andrew (IRL) M18-34 (+)
184 3:42:03 Mostad Marit (NOR) F55-59 (+)
185 3:42:07 Skjei Skule (NOR) M18-34 (+)
186 3:42:07 Skjetne Arve (NOR) M40-44 (+)
187 3:42:19 Theodore Caroline (AUS) F18-34 (+)
188 3:42:23 Serhii Panchenko (UKR) M60-64 (+)
189 3:42:23 Lewes James (GBR) M50-54 (+)
190 3:42:25 Kuipers Koen (NED) M18-34 (+)
191 3:42:35 Kjaer Ulrik (DEN) M45-49 (+)
192 3:42:50 Inge Falck Olsen (NOR) M55-59 (+)
193 3:43:07 Beevers James (GBR) M40-44 (+)
194 3:43:25 Bolster Carl (USA) M50-54 (+)
195 3:43:27 Clarke Joshua (GBR) M18-34 (+)
196 3:43:46 Daroczi Tobias (AUT) M45-49 (+)
197 3:43:59 Sorhaug Kristin (NOR) F18-34 (+)
198 3:44:21 Scholz Jakob (GER) M18-34 (+)
199 3:44:26 Giardinieri Yuri (ITA) M18-34 (+)
200 3:44:32 Grant Andrew (AUS) M18-34 (+)
201 3:44:32 Gruber Markus (GER) M45-49 (+)
202 3:44:34 Schuchardt Anneke (GER) F40-44 (+)
203 3:44:45 Park Niki (GBR) F50-54 (+)
204 3:44:47 Ludvik Wolfgang Fiksdal (NOR) M18-34 (+)
205 3:45:00 O'flaherty Michael (IRL) M45-49 (+)
206 3:45:06 Mahoney James (USA) M18-34 (+)
207 3:45:33 Gerritse Dennis (NED) M18-34 (+)
208 3:45:54 Wood Ron (GBR) M18-34 (+)
209 3:45:59 Towart Gavin (GBR) M35-39 (+)
210 3:46:01 Ida Risnes Hansen (NOR) F18-34 (+)
211 3:46:13 Piasentin Francesco (ITA) M40-44 (+)
212 3:46:17 Johansson Theresia (SWE) F18-34 (+)
213 3:46:26 Rangetiner Barbara (AUT) F55-59 (+)
214 3:46:35 Mcneill Mark (USA) M18-34 (+)
215 3:46:38 Hogner Kristin (GER) F18-34 (+)
216 3:46:51 Kaia Nygaard Omland (NOR) F18-34 (+)
217 3:46:54 Mckenna John (GBR) M35-39 (+)
218 3:46:56 Abdulqader Adam Altom (SUD) M18-34 (+)
219 3:46:56 Daligault Christophe (FRA) M50-54 (+)
220 3:46:56 Jonsson Michael (SWE) M18-34 (+)
220 3:46:56 Timmermans Peter (BEL) M50-54 (+)
222 3:46:59 Berg Nicolas (NOR) M18-34 (+)
223 3:47:16 Campbell Andy (AUS) M18-34 (+)
224 3:47:19 Balzus Stefan (GER) M50-54 (+)
225 3:47:37 Blazy Olivier (FRA) M45-49 (+)
226 3:47:47 Pinheiro Fabianne (BRA) F35-39 (+)
227 3:48:15 Cressy Kyle (USA) M18-34 (+)
228 3:48:16 Wollvik Lill-iren (NOR) F45-49 (+)
229 3:48:27 Bruylandt Bjorn (BEL) M18-34 (+)
230 3:48:28 Walton John (GBR) M45-49 (+)
231 3:48:30 Corr Lesley (GBR) F45-49 (+)
232 3:48:32 Gordon Laura (GBR) F18-34 (+)
233 3:48:34 Knoester Malin (SWE) F18-34 (+)
234 3:48:38 Martin Ellemann Olesen (DEN) M40-44 (+)
235 3:48:53 James Leigh (GBR) M50-54 (+)
236 3:49:06 Meechan Gary (GBR) M55-59 (+)
237 3:49:11 Mann Margaret (GBR) F18-34 (+)
238 3:49:23 Hibbert Vincent (IRL) M40-44 (+)
239 3:49:24 Reeve Stuart (AUS) M45-49 (+)
240 3:49:27 Dijkgraaf Bas (NED) M35-39 (+)
241 3:49:51 Ronald Christoffel Saleming (NED) M55-59 (+)
242 3:49:56 Hollwerth Johann (AUT) M55-59 (+)
243 3:49:56 Flevas Costas (GRE) M35-39 (+)
244 3:49:57 Fossum Astrid (NOR) F18-34 (+)
245 3:49:58 Talarczyk Krzysztof (POL) M35-39 (+)
246 3:50:19 Giani Michel (FRA) M50-54 (+)
247 3:50:22 Bakken Daniel (NOR) M18-34 (+)
248 3:50:24 Merete Ingeborg Bolin (NOR) F50-54 (+)
249 3:50:26 Duncan Riddoch (GBR) M45-49 (+)
250 3:50:44 Wakelin Ross (NZL) M55-59 (+)
251 3:50:46 Cabrita Eduardo (POR) M45-49 (+)
252 3:50:48 Hans Eric Daroczi (FRA) M40-44 (+)
253 3:50:55 Lavrentjev Ivan (EST) M18-34 (+)
254 3:50:58 Gabaud Philippe (FRA) M50-54 (+)
255 3:50:58 Brosset Pierre (FRA) M50-54 (+)
256 3:51:00 Marit Solhaug N?ss (NOR) F18-34 (+)
257 3:51:14 Bergmann Christoph (GER) M40-44 (+)
258 3:51:21 Balestri Paolo (ITA) M45-49 (+)
259 3:51:26 Daams Samuel (NED) M40-44 (+)
260 3:51:29 Mattiniemi Joonas (FIN) M35-39 (+)
261 3:51:33 Bakken Merethe (NOR) F40-44 (+)
262 3:51:33 Norcereau Albin (FRA) M18-34 (+)
263 3:51:38 Halbrecht Kyle (USA) M18-34 (+)
264 3:51:38 Parent Loic (FRA) M18-34 (+)
265 3:51:40 Thomas Sebastien (SUI) M18-34 (+)
266 3:51:42 Carlier Xavier (BEL) M45-49 (+)
267 3:51:44 Holl Joanne (GBR) F50-54 (+)
268 3:51:48 Ole Edvin Nystad (NOR) M35-39 (+)
269 3:51:52 Clementson Christina (GBR) F45-49 (+)
270 3:51:57 Dietz Ralph (GER) M55-59 (+)
271 3:52:01 Besnier Jean-yves (FRA) M60-64 (+)
272 3:52:03 Claesson Jesper (SWE) M45-49 (+)
273 3:52:08 Schoonenberg Martijn (NED) M40-44 (+)
274 3:52:08 Croxford Jon (GBR) M18-34 (+)
275 3:52:09 Parreira Armando (POR) M50-54 (+)
276 3:52:14 Pons Philippe (FRA) M50-54 (+)
277 3:52:15 Ottenhof Daniel (NED) M50-54 (+)
278 3:52:27 Quirke Elizabeth (GBR) F18-34 (+)
279 3:52:34 Dillon Oran (IRL) M18-34 (+)
280 3:52:55 Wai Man Cheung (HKG) M50-54 (+)
281 3:52:57 Ryan Leo Leddy (USA) M18-34 (+)
282 3:53:00 Ytreberg Jorgen (NOR) M45-49 (+)
283 3:53:02 Gios Olivier (BEL) M18-34 (+)
283 3:53:02 Wuttke Sandra (GER) F35-39 (+)
285 3:53:04 Gerstacker Clemens (GER) M18-34 (+)
286 3:53:04 Maciel Claudete (GER) F55-59 (+)
287 3:53:18 Persson Stina (SWE) F18-34 (+)
288 3:53:18 Wiedmann Benedikt (GER) M18-34 (+)
289 3:53:19 Reynolds Ben (IRL) M18-34 (+)
290 3:53:25 Haimann Adria (GER) F18-34 (+)
291 3:53:27 Patrickson Charlie (GBR) M18-34 (+)
292 3:53:36 Bennett Jennifer (USA) F45-49 (+)
293 3:53:40 Mansfeldt Cresten (USA) M18-34 (+)
294 3:53:44 Weber Natasha (BRA) F35-39 (+)
295 3:53:49 Jeffrey Phil (GBR) M45-49 (+)
296 3:53:49 Mitchell Alistair (GBR) M45-49 (+)
296 3:53:49 Fuchshuber Claudia (AUT) F18-34 (+)
298 3:53:50 Waterhouse John (GBR) M40-44 (+)
299 3:53:53 Thomas K. Fore (NOR) M40-44 (+)
300 3:53:54 Barouillet Clement (FRA) M18-34 (+)
301 3:53:58 Cecchini Giuseppe (ITA) M45-49 (+)
302 3:54:01 Grimonpont Jocelyn (FRA) M40-44 (+)
303 3:54:03 Wilson Craig (GBR) M45-49 (+)
304 3:54:23 Knoll Eduard (GER) M60-64 (+)
305 3:54:25 Skaug Eirik (NOR) M18-34 (+)
306 3:54:29 Boyes Nicola (GBR) F50-54 (+)
307 3:54:32 Erling Santi Falch (NOR) M50-54 (+)
308 3:54:38 Engel Teja (GER) M45-49 (+)
309 3:54:46 Sasse Willi (GER) M18-34 (+)
310 3:54:47 Crothers Timothy (GBR) M18-34 (+)
311 3:54:48 Patel Jay (GBR) M18-34 (+)
312 3:54:52 Nilsson Jonas (SWE) M50-54 (+)
313 3:54:53 Kaldma Andrus (EST) M18-34 (+)
314 3:54:57 Hoang Long Luu (AUS) M35-39 (+)
315 3:55:00 Skar Markus (NOR) M18-34 (+)
316 3:55:01 Frida Anette Sollid (NOR) F18-34 (+)
317 3:55:08 Griffin Benjamin (GBR) M18-34 (+)
318 3:55:09 Barane Anders (SWE) M35-39 (+)
319 3:55:13 Sboro Alfredo (ITA) M75+ (+)
320 3:55:28 Valera Sachin (GBR) M18-34 (+)
321 3:55:29 Jesinghausen Leonard (GER) M18-34 (+)
322 3:55:29 Grendova Valentina (SVK) F18-34 (+)
323 3:55:30 Power Steve (GBR) M45-49 (+)
324 3:55:36 Mortimer Ian (GBR) M40-44 (+)
325 3:55:38 Roche Anne (FRA) F50-54 (+)
326 3:55:43 Hoogkamer Bob (NED) M50-54 (+)
327 3:55:46 Lanzalone Andrea (ITA) M50-54 (+)
328 3:55:48 Nathan Lawson Mclean (GBR) M18-34 (+)
329 3:55:49 Jones Hunter (USA) M55-59 (+)
330 3:56:00 Smith Carla (USA) F18-34 (+)
331 3:56:02 Rene Randrup Rasmussen (DEN) M45-49 (+)
332 3:56:03 Vestby Geir (NOR) M45-49 (+)
333 3:56:10 Viken Bernt (NOR) M18-34 (+)
334 3:56:19 Broadhead Matthew (GBR) M40-44 (+)
335 3:56:19 Steffen Tysse Sandvoll (NOR) M18-34 (+)
336 3:56:27 Torstad Eirik (NOR) M55-59 (+)
337 3:56:28 Sloof Eric (NED) M45-49 (+)
338 3:56:37 Salfinger Kate (AUS) F18-34 (+)
339 3:56:37 Windfeld Michael (NOR) M45-49 (+)
340 3:56:39 Lagarde Alain (FRA) M55-59 (+)
341 3:56:40 Reilly Thomas (IRL) M18-34 (+)
342 3:56:46 Dahl Thomas (NOR) M55-59 (+)
343 3:56:55 Chiboub Khaled (TUN) M18-34 (+)
344 3:56:55 Mateja Bozena (POL) F55-59 (+)
345 3:57:10 Mayock Mairead (IRL) F18-34 (+)
346 3:57:15 Dyson Richard (GBR) M40-44 (+)
347 3:57:19 Mota Nelson (POR) M45-49 (+)
348 3:57:20 Norris Dan (GBR) M45-49 (+)
349 3:57:20 Antoni Feliubadalo Elorza (ESP) M50-54 (+)
350 3:57:21 Moone George (GBR) M18-34 (+)
351 3:57:22 Mc Loughlin Frank (IRL) M55-59 (+)
352 3:57:26 Pontes Sergio (POR) M40-44 (+)
353 3:57:26 Sendin Paulo (POR) M50-54 (+)
354 3:57:33 Adamson Alex (GBR) M18-34 (+)
355 3:57:34 Leszczynska Iwona (POL) F40-44 (+)
356 3:57:37 Tourne Pascal (FRA) M60-64 (+)
357 3:57:47 Guionnet Alain (FRA) M50-54 (+)
358 3:57:48 Holmberg Ida (SWE) F35-39 (+)
359 3:58:00 Crumbie Alison (GBR) F50-54 (+)
360 3:58:01 Damiens Patricia (FRA) F50-54 (+)
361 3:58:03 Georges Alexis (BEL) M40-44 (+)
362 3:58:03 Paulus Maik (GER) M18-34 (+)
363 3:58:08 Ka Shing Yau (HKG) M18-34 (+)
364 3:58:11 Debonneville Christophe (SUI) M40-44 (+)
364 3:58:11 Henry Christophe (FRA) M50-54 (+)
366 3:58:13 Hegdahl Johan-thomas (NOR) M50-54 (+)
367 3:58:14 Oynes Frode (NOR) M40-44 (+)
368 3:58:27 Asp Jeanette (SWE) F40-44 (+)
369 3:58:31 Merlin Arthur (FRA) M18-34 (+)
370 3:58:32 Wiedmann Simon (GER) M18-34 (+)
371 3:58:35 Semanko Frantisek (SVK) M60-64 (+)
372 3:58:39 Hague Thomas (GBR) M18-34 (+)
373 3:58:40 Kristin Solhaug N?ss (NOR) F18-34 (+)
374 3:58:43 Hammond Simon (ZWE) M55-59 (+)
375 3:58:48 Host Christine (NOR) F45-49 (+)
375 3:58:48 Avery Eileen (USA) F45-49 (+)
377 3:58:50 Karin Nordgard Hegdahl (NOR) F50-54 (+)
378 3:58:53 Gjerde Charlotte (NOR) F18-34 (+)
379 3:58:54 Van Der Pol Renae (AUS) F45-49 (+)
380 3:58:59 Harris John (GBR) M45-49 (+)
381 3:59:07 Immonen Matti (FIN) M18-34 (+)
382 3:59:15 Gullon Claire (FRA) F18-34 (+)
383 3:59:20 Goldkuhle Werner (GER) M55-59 (+)
384 3:59:24 Rocher Vincent (FRA) M40-44 (+)
385 3:59:26 Bradley Kyle (AUS) M18-34 (+)
386 3:59:35 Faria Maria (BRA) F50-54 (+)
387 3:59:36 Synnerstrom Mette (SWE) F45-49 (+)
388 3:59:38 Hastings Richard (GBR) M50-54 (+)
389 3:59:38 Synnevag Sondre (NOR) M18-34 (+)
390 3:59:39 Westbrook Carmen (USA) F35-39 (+)
391 3:59:49 Mckay Scott (GBR) M18-34 (+)
392 4:00:06 Zwerver Jacco (NED) M45-49 (+)
393 4:00:11 Barlow Adam (GBR) M35-39 (+)
394 4:00:21 Roberdel Benoit (FRA) M45-49 (+)
395 4:00:25 Goodwin Lawrence (GBR) M18-34 (+)
396 4:00:29 Tombers Carsten (GER) M40-44 (+)
397 4:00:43 Le Meur--pause Sylvain (FRA) M18-34 (+)
398 4:00:55 Oxford Natalie (USA) F35-39 (+)
399 4:01:00 Verger Cedric (FRA) M40-44 (+)
400 4:01:11 Sura Philip (USA) M45-49 (+)
401 4:01:14 Cotten Maryannick (FRA) F50-54 (+)
402 4:01:18 Wheeler Annette (GBR) F18-34 (+)
403 4:01:19 O\'keane Francis (IRL) M55-59 (+)
404 4:01:27 Breznen Igor (SVK) M40-44 (+)
405 4:01:39 Novelli Marco (ITA) M50-54 (+)
406 4:01:45 Karin Furby (RSA) F40-44 (+)
407 4:02:06 Zanzinger Stephan (GER) M50-54 (+)
408 4:02:09 Vannevel Veronique (BEL) F50-54 (+)
409 4:02:29 Elbracht Uwe (GER) M50-54 (+)
410 4:02:51 Jon Kristian Morken (NOR) M18-34 (+)
411 4:02:52 Gjertsen Magnus (NOR) M18-34 (+)
412 4:03:01 Morris Andrew (GBR) M40-44 (+)
413 4:03:07 Brennan Luke (IRL) M18-34 (+)
414 4:03:27 Henkel Kerstin (GER) F45-49 (+)
415 4:03:39 Ciabattoni Stefano (ITA) M50-54 (+)
416 4:03:49 Peltzer Swen (GER) M35-39 (+)
417 4:03:55 Silja Annikki Ruud (NOR) F18-34 (+)
418 4:04:01 Marie Amelie Le Mesle (FRA) F18-34 (+)
419 4:04:16 Janusz Michal Mateja (POL) M60-64 (+)
420 4:04:19 Guttenberger Johann (GER) M55-59 (+)
421 4:04:20 Guttenberger Josi (GER) F55-59 (+)
422 4:04:26 Francova Blanka (CZE) F40-44 (+)
423 4:04:28 Van Duijnhoven Vincent (NED) M50-54 (+)
424 4:04:37 Andreas Sung Unstad (NOR) M18-34 (+)
425 4:04:51 Touzeau Katrina (AUS) F50-54 (+)
426 4:05:22 Ibechukwu Uzoma (GBR) M18-34 (+)
427 4:05:28 Mees Simon (BEL) M35-39 (+)
428 4:05:40 Lyczba Boguslaw (POL) M55-59 (+)
429 4:05:47 Wright Bruce (USA) M65-69 (+)
430 4:05:56 Taylor Steven (GBR) M18-34 (+)
431 4:06:09 Halvor Mathias Elde (NOR) M18-34 (+)
432 4:06:22 Raffagnini Daniele (ITA) M50-54 (+)
433 4:06:23 Pur Ondrej (CZE) M40-44 (+)
434 4:06:24 Pur George (GBR) M35-39 (+)
435 4:06:30 Murch Michael (GBR) M18-34 (+)
436 4:06:39 Brody Samantha (USA) F18-34 (+)
437 4:06:43 Delarue Eric (FRA) M50-54 (+)
438 4:06:50 Gunnarson Kolbjorn (NOR) M45-49 (+)
439 4:06:54 Schlogl Michal (CZE) M45-49 (+)
440 4:06:54 Schloglova Jana (CZE) F40-44 (+)
441 4:06:54 Kelly James (GBR) M18-34 (+)
441 4:06:54 Hinze Uwe (RSA) M18-34 (+)
443 4:06:55 Berman Guy (ISR) M45-49 (+)
444 4:07:01 Ribeiro Antonio (POR) M70-74 (+)
445 4:07:06 Cotter Deirdre (AUS) F50-54 (+)
446 4:07:06 Day Stephen (GBR) M18-34 (+)
447 4:07:07 Lejolivet Bertrand (FRA) M45-49 (+)
448 4:07:16 Bonenti Cinzia (ITA) F45-49 (+)
449 4:07:26 Henrik Boge Madsen (DEN) M50-54 (+)
450 4:07:31 Puziuk Marta (POL) F35-39 (+)
451 4:07:36 Michaud Franck (FRA) M50-54 (+)
452 4:07:40 Haglund Niklas (GBR) M45-49 (+)
453 4:07:48 Suvorov Viacheslav (RUS) M18-34 (+)
454 4:07:54 Klara Anett Alfsen (NOR) F45-49 (+)
455 4:08:13 Possoz Alistair (GBR) M40-44 (+)
456 4:08:13 Egeland Kjellaug (NOR) F60-64 (+)
457 4:08:17 Turner Aidan (IRL) M35-39 (+)
458 4:08:19 Bouleau Jacques (FRA) M55-59 (+)
459 4:08:22 May-lene Lunde Uberg (NOR) F45-49 (+)
460 4:08:27 Brimage Rebecca (GBR) F40-44 (+)
461 4:08:32 Lavery Gearoid (IRL) M40-44 (+)
462 4:08:35 Weber Clara (GER) F18-34 (+)
463 4:08:46 Jutton Lee (USA) F18-34 (+)
464 4:08:48 Menhart Manfred (AUT) M55-59 (+)
465 4:08:56 Armshaw Emma (GBR) F18-34 (+)
466 4:08:58 Bertrand Chapuis (FRA) M60-64 (+)
467 4:09:02 Tharumarajah Jaiganesh (MAS) M35-39 (+)
468 4:09:09 Dahlhaug Marianne (NOR) F35-39 (+)
469 4:09:09 Dines Jonathon (GBR) M35-39 (+)
470 4:09:13 Coste Sarah (FRA) F45-49 (+)
471 4:09:20 Germano Claudio (ITA) M50-54 (+)
472 4:09:27 Rickard Elliott (GBR) M18-34 (+)
473 4:09:28 Gard Johannes Gauteplass (NOR) M18-34 (+)
474 4:09:30 Franklin Victoria (CAN) F35-39 (+)
475 4:09:39 Sauve Karine (FRA) F45-49 (+)
476 4:09:40 Wainwright Bronwyn (RSA) F35-39 (+)
477 4:09:41 Sauve Patrick (FRA) M45-49 (+)
478 4:09:44 Hagley John (GBR) M35-39 (+)
479 4:09:46 Vanzurpele Martine (BEL) F45-49 (+)
480 4:09:55 Lindstad Christian (NOR) M50-54 (+)
481 4:09:56 Lindstad Beate (NOR) F45-49 (+)
482 4:09:56 Kramer Ralf (GER) M50-54 (+)
483 4:10:09 Gutman Menachem (ISR) M70-74 (+)
484 4:10:15 Valenti Gilberto (ITA) M45-49 (+)
485 4:10:34 Zielinski Rafal (POL) M45-49 (+)
486 4:10:40 Rex Lindstrom Grip (SWE) M18-34 (+)
487 4:10:57 Pye Zoe (AUS) F40-44 (+)
488 4:10:57 Morland David (GBR) M35-39 (+)
489 4:10:58 Gardner Michael (RSA) M18-34 (+)
490 4:11:13 Lanza Massimo (ITA) M50-54 (+)
491 4:11:15 Anne Grethe Kvist (NOR) F45-49 (+)
492 4:11:17 Hunt Kathryn (AUS) F18-34 (+)
493 4:11:21 Terje Domaas Josefsen (NOR) M55-59 (+)
494 4:11:26 Whyte Conor (IRL) M18-34 (+)
495 4:11:27 Goncalves Tiago (BRA) M35-39 (+)
496 4:11:28 Kalmakrian Leon (GBR) M35-39 (+)
497 4:11:29 Pogorzelski Marek (POL) M50-54 (+)
498 4:11:42 Chen Chien-cheng (TPE) M45-49 (+)
499 4:11:44 Maheu Marina (FRA) F40-44 (+)
500 4:11:45 Roulin Stephane (FRA) M45-49 (+)
501 4:11:46 Onstad Martin (NOR) M18-34 (+)
502 4:11:53 Cavalcanti Jonas (BRA) M50-54 (+)
503 4:12:15 Forshaw Stephen (GBR) M45-49 (+)
504 4:12:20 Graedon Alena (USA) F35-39 (+)
504 4:12:20 Anderson Robert (USA) M50-54 (+)
506 4:12:23 Anderson-chapman Oliver (GBR) M18-34 (+)
507 4:12:27 Larsen Carsten (DEN) M45-49 (+)
508 4:12:31 Whatley Jack (GBR) M18-34 (+)
509 4:12:33 Ana Martha Coutino (MEX) F18-34 (+)
510 4:12:33 Sonderegger Jakob (SWE) M35-39 (+)
511 4:12:51 Sikken Ketura (NED) F40-44 (+)
512 4:12:56 Galtier Nathalie (FRA) F35-39 (+)
512 4:12:56 Shaw Simon (GBR) M45-49 (+)
514 4:13:03 Eidhamar Dag (NOR) M50-54 (+)
515 4:13:14 Kobus Jan (POL) M40-44 (+)
516 4:13:31 Nilsen ?shild (NOR) F50-54 (+)
517 4:13:34 Niachai Aliaksei (BLR) M35-39 (+)
518 4:13:37 Foley David (IRL) M18-34 (+)
519 4:13:43 Dalhaug Morten (NOR) M18-34 (+)
520 4:13:46 Ujvari Bernhard (AUT) M18-34 (+)
521 4:13:47 Winship Philippa (GBR) F18-34 (+)
522 4:14:04 Gonson Darla (USA) F55-59 (+)
523 4:14:08 Steis Tatyana (USA) F40-44 (+)
524 4:14:18 Ashton Matthew (GBR) M18-34 (+)
525 4:14:20 O'reilly Ronan (IRL) M18-34 (+)
526 4:14:21 Poll Austen (GBR) M18-34 (+)
527 4:14:21 Daalhuizen Niels (NED) M40-44 (+)
528 4:14:26 Pitayanukul Jonathan (GBR) M60-64 (+)
529 4:14:31 Lund Hans-jorgen (NOR) M50-54 (+)
530 4:14:34 Pitayanukul James (GBR) M18-34 (+)
531 4:14:39 Razukiene Deimante (LTU) F35-39 (+)
532 4:14:53 Jackermeier Matthias (GER) M50-54 (+)
533 4:15:09 Hatt Debbie (GBR) F45-49 (+)
534 4:15:14 Day Laura (GBR) F18-34 (+)
535 4:15:17 Figueroa Catherine (FRA) F50-54 (+)
536 4:15:18 Walsh Gerri (USA) F55-59 (+)
537 4:15:51 Mahoney Daniel (USA) M18-34 (+)
538 4:15:52 Sabel Christopher (GER) M18-34 (+)
539 4:15:53 Hague Oliver (GBR) M35-39 (+)
540 4:16:11 Ukrasin Igor (GBR) M45-49 (+)
541 4:16:13 Dale Wendy (GBR) F55-59 (+)
542 4:16:39 Carbone Gabriele (ITA) M55-59 (+)
543 4:17:03 Ricci Mario (ITA) M60-64 (+)
544 4:17:11 Young Gregory (USA) M35-39 (+)
545 4:17:13 Heath Peter (GBR) M60-64 (+)
546 4:17:29 Bezault Marie France (FRA) F50-54 (+)
547 4:17:33 Herin Stephanie (FRA) F45-49 (+)
548 4:17:43 Christiansen Sivert (NOR) M18-34 (+)
549 4:17:43 Hadzilacos Thanasis (GRE) M65-69 (+)
550 4:17:53 Beer Holger (GER) M40-44 (+)
551 4:17:53 Carter Anna (IRL) F18-34 (+)
552 4:17:55 Nitri Andrea (ITA) M18-34 (+)
553 4:18:01 Jehoel Niki (NED) F18-34 (+)
554 4:18:17 Kantola Etti (FIN) F40-44 (+)
555 4:18:19 Janiszewski Krzysztof (POL) M35-39 (+)
556 4:18:19 Gomez Francisco (COL) M55-59 (+)
557 4:18:44 Boulanger Etienne (BEL) M40-44 (+)
558 4:18:51 Marit Gard Amundstad (NOR) F50-54 (+)
559 4:18:52 Etienne Alexandra (FRA) F18-34 (+)
560 4:18:57 Kunkel Holger (GER) M60-64 (+)
561 4:18:59 Knut Erik Kongsvik (NOR) M18-34 (+)
562 4:19:00 Hetles?ter Anders (NOR) M18-34 (+)
563 4:19:06 Gickler Wolfgang (GER) M55-59 (+)
564 4:19:11 Artini Roberto (ITA) M65-69 (+)
565 4:19:17 Cais Frederico (BRA) M45-49 (+)
566 4:19:20 Jaeckel Johann (GER) M35-39 (+)
567 4:19:24 Summers Cassie (GBR) F18-34 (+)
568 4:19:39 Chute Meg (AUS) F18-34 (+)
569 4:19:41 Dobiecki Julie (FRA) F18-34 (+)
570 4:19:51 Lacouture Isabelle (FRA) F45-49 (+)
571 4:20:08 Drou Martine (FRA) F60-64 (+)
572 4:20:09 A. Miguel Navarro Pla (ESP) M18-34 (+)
573 4:20:14 William Saville (GBR) M18-34 (+)
574 4:20:20 Guevellou Franck (FRA) M50-54 (+)
575 4:20:21 Giovanni Andrea Autelitano (ITA) M50-54 (+)
576 4:20:38 Gjertsen-martino Vera (NOR) F40-44 (+)
577 4:21:04 Millot Gaelle (FRA) F40-44 (+)
578 4:21:12 Schramm Caroline (SWE) F18-34 (+)
579 4:21:12 Tracey Mell (GBR) F18-34 (+)
580 4:21:13 Debret Romain (FRA) M40-44 (+)
581 4:21:14 Lambert Elise (FRA) F40-44 (+)
582 4:21:17 Balsamo Secondo (ITA) M60-64 (+)
583 4:21:55 Leszczynski Radek (POL) M45-49 (+)
584 4:22:19 Werker Nikki (GBR) F18-34 (+)
585 4:22:34 Erle Kavlie Lystad (NOR) F18-34 (+)
586 4:22:34 Haukaas Martin (NOR) M18-34 (+)
587 4:22:50 Damiens Lionel (FRA) M50-54 (+)
588 4:22:54 Rivett Michael (GBR) M35-39 (+)
589 4:23:06 Pedro Morao Correia (POR) M40-44 (+)
590 4:23:13 Chi Cheung Lam (HKG) M60-64 (+)
591 4:23:15 Cornuault Fanette (FRA) F40-44 (+)
592 4:23:26 Strom Fredrik (NOR) M40-44 (+)
593 4:23:33 Cros Christian (FRA) M60-64 (+)
594 4:23:39 Wikner Matthew (GBR) M40-44 (+)
595 4:23:42 Herin Maurice (FRA) M75+ (+)
596 4:23:45 Knutsen Aleksander (NOR) M18-34 (+)
597 4:23:52 Kneppen Borre (NOR) M45-49 (+)
598 4:23:56 Sipola Mari (FIN) F45-49 (+)
599 4:23:57 Hast Markus (FIN) M60-64 (+)
600 4:24:01 Browne Aidan (IRL) M18-34 (+)
601 4:24:03 Anne Wiebe Deboer (NED) M60-64 (+)
602 4:24:10 Riley Erin (USA) F18-34 (+)
603 4:24:12 Sihra Virinder (GBR) F35-39 (+)
604 4:24:13 Wiklander Simon (SWE) M18-34 (+)
605 4:24:22 Van Den Schrieck Jean-christophe (BEL) M35-39 (+)
606 4:24:34 Ramberg Oyvind (NOR) M40-44 (+)
607 4:24:38 Santinello Francesco (ITA) M35-39 (+)
608 4:24:51 Szilagyi Peter (HUN) M35-39 (+)
609 4:24:54 Hilde Lisbeth Strand (NOR) F45-49 (+)
610 4:25:05 Butters Jennifer (AUS) F55-59 (+)
611 4:25:11 Carole Colin Kjaer (FRA) F40-44 (+)
612 4:25:12 Howells Matthew (GBR) M18-34 (+)
613 4:25:16 Pooe Olebogang (RSA) M55-59 (+)
614 4:25:22 Wilde-sampaio Bernardo (NOR) M40-44 (+)
615 4:25:37 Quintyn Mathieu (BEL) M35-39 (+)
616 4:25:47 Panes Arvin (GBR) M40-44 (+)
617 4:25:57 Sekaric Lidija (USA) F40-44 (+)
618 4:26:14 Rafel Mollar I Gumbau (AND) M60-64 (+)
619 4:26:25 Allen Tom (GBR) M18-34 (+)
620 4:26:52 Mann Marcus (GER) M18-34 (+)
621 4:26:56 Terpstra Sietse (NED) M18-34 (+)
622 4:27:31 Herviou Annick (FRA) F40-44 (+)
623 4:27:32 Colliot Christian (FRA) M60-64 (+)
624 4:27:35 Ramon Frederic (FRA) M40-44 (+)
625 4:27:42 Luonuansuu Timo (FIN) M18-34 (+)
626 4:27:46 Brooks Arthur (GBR) M65-69 (+)
627 4:28:07 Brookwell Matt (GBR) M40-44 (+)
628 4:28:14 Bird Peter (GBR) M18-34 (+)
629 4:28:14 Bird Grace (GBR) F18-34 (+)
630 4:28:46 Parodi Stefano (ITA) M40-44 (+)
631 4:28:55 Bracconi Margherita (ITA) F60-64 (+)
632 4:29:15 Stoop Ilona (NED) F45-49 (+)
633 4:29:16 Botte Elien (BEL) F18-34 (+)
634 4:29:35 Roberts John (GBR) M18-34 (+)
635 4:30:04 Darbonne Charles (FRA) M40-44 (+)
636 4:30:06 Backus Angelique (NED) F50-54 (+)
637 4:30:09 Colin Benedicte (AUS) F45-49 (+)
638 4:30:10 De Ceulener Estelle (BEL) F35-39 (+)
639 4:30:24 Cleary Alison (GBR) F18-34 (+)
640 4:30:45 Sotiropoulos John (GBR) M50-54 (+)
641 4:30:49 Bradford Chris (GBR) M18-34 (+)
642 4:30:56 Man Wing Wong (GBR) F18-34 (+)
643 4:31:05 Child Kathleen (GBR) F50-54 (+)
644 4:31:13 Hjort Michael (DEN) M18-34 (+)
645 4:31:15 Saaristu Valter (SWE) M65-69 (+)
646 4:31:22 Pinto Marc (USA) M55-59 (+)
647 4:31:26 Cheung Yin-hai (GBR) F45-49 (+)
648 4:31:45 Petitt Pauline (GBR) F55-59 (+)
649 4:32:12 Vercauteren Kris (BEL) M50-54 (+)
650 4:32:13 Grigsby Tamara (USA) F55-59 (+)
651 4:32:16 Zachariassen Lars (NOR) M18-34 (+)
652 4:32:19 Helene Fossum Gronseth (NOR) F18-34 (+)
653 4:32:32 Karppinen Satu (FIN) F50-54 (+)
654 4:32:35 Neill Kevin (GBR) M45-49 (+)
655 4:32:37 Gursansky Wayne (AUS) M50-54 (+)
656 4:32:39 Kazimierczak Grzegorz (POL) M55-59 (+)
657 4:33:14 Kvisvik Janne (NOR) F45-49 (+)
658 4:33:17 Davenport Tom (GBR) M18-34 (+)
659 4:33:43 Varis Veli-pekka (FIN) M50-54 (+)
660 4:34:01 Fortune Andrea (RSA) F35-39 (+)
661 4:34:04 Almbakk Siv (NOR) F50-54 (+)
662 4:34:47 Damera Vijay Kumar (IND) M35-39 (+)
663 4:34:51 Fraser Jennifer (GBR) F40-44 (+)
664 4:34:54 Herlihy Alan (GBR) M50-54 (+)
665 4:34:56 Karin Helena Sjoberg (NOR) F50-54 (+)
666 4:35:04 Durban Jade (FRA) F18-34 (+)
667 4:35:20 Dousson Jacqueline (FRA) F55-59 (+)
668 4:35:21 Featham Nigel (GBR) M50-54 (+)
669 4:35:35 Garnett Elizabeth (GBR) F18-34 (+)
670 4:35:47 Clarke Steven (GBR) M55-59 (+)
671 4:35:47 Cavelier Juan (ITA) M55-59 (+)
672 4:35:47 N?ro Ragnvald (NOR) M60-64 (+)
673 4:35:47 Brandis Pavol (SVK) M60-64 (+)
674 4:35:49 Cattoor Nele (BEL) F35-39 (+)
675 4:35:52 Kochte Mathias (GER) M40-44 (+)
676 4:35:54 Gundersen Trond (NOR) M50-54 (+)
677 4:35:56 Lee Linda (USA) F18-34 (+)
678 4:35:59 Male Teresa (GBR) F55-59 (+)
679 4:36:04 Alexandre Luis Silva (BRA) M35-39 (+)
680 4:36:11 Cheatley Jane (AUS) F18-34 (+)
681 4:36:18 Gettwert Klaus (GER) M45-49 (+)
682 4:36:39 Forsland Trym (NOR) M18-34 (+)
683 4:36:43 Morris Ian (USA) M18-34 (+)
684 4:36:53 Cullen Canie (RSA) F50-54 (+)
685 4:37:00 Cully Brian (USA) M18-34 (+)
686 4:37:07 Zimny Torsten (GER) M55-59 (+)
687 4:37:12 Ottner Peter (GER) M50-54 (+)
688 4:37:17 Hana Jane Evans (GBR) F18-34 (+)
689 4:37:25 Glencross Ian (GBR) M55-59 (+)
690 4:37:44 Aasmaa Aulo (EST) M35-39 (+)
691 4:37:53 Vitale Alessio (ITA) M45-49 (+)
692 4:37:53 Martinais Dominique (FRA) M55-59 (+)
693 4:37:54 Noel Nicolas (FRA) M45-49 (+)
694 4:38:08 Kruger Doris (GER) F55-59 (+)
695 4:38:18 Marsland Robert (GBR) M40-44 (+)
696 4:38:27 Pratt Samantha (GBR) F18-34 (+)
697 4:38:28 Bradford Alex (GBR) M18-34 (+)
698 4:38:40 Swart Sunette (RSA) F50-54 (+)
699 4:39:02 Macpherson Lori (GBR) F18-34 (+)
700 4:39:02 Kalfayan Freddie (GBR) M18-34 (+)
701 4:39:05 Holmer Svein (NOR) M18-34 (+)
702 4:39:09 Stenvold Angelica (SWE) F18-34 (+)
703 4:39:09 Edvardsson Camilla (SWE) F45-49 (+)
704 4:39:14 Enderle Stephen (SUI) M40-44 (+)
705 4:39:21 Burns Levi (CAN) M18-34 (+)
706 4:39:23 Radlmaier Felix (AUT) M18-34 (+)
707 4:39:28 Haworth Andrew (GBR) M45-49 (+)
708 4:39:33 Anton Agersnap Gustavson (DEN) M18-34 (+)
709 4:39:35 Wouter Gerhardus Van Veen (NED) M18-34 (+)
710 4:39:37 Dash Bibhash (IND) M18-34 (+)
711 4:39:39 Fedan Agnieszka (POL) F18-34 (+)
712 4:39:52 Vaagen Lars (NOR) M60-64 (+)
713 4:40:03 Ivanov Dimitar (BUL) M18-34 (+)
714 4:40:09 Queiroz Gabriel (BRA) M35-39 (+)
715 4:40:11 Bellanger Maryse (FRA) F55-59 (+)
716 4:40:37 Ng Jeremy (AUS) M18-34 (+)
717 4:40:40 Ceccarelli Fabio (ITA) M45-49 (+)
718 4:40:58 Hoath Sean (CAN) M18-34 (+)
719 4:41:14 Gro Anita Fossum (NOR) F45-49 (+)
720 4:41:25 Craver Kenric (USA) M45-49 (+)
721 4:41:34 Bausch Thomas (GER) M50-54 (+)
722 4:41:35 Rompteaux Arnauld (FRA) M50-54 (+)
723 4:41:37 Hanke Kevin (GER) M18-34 (+)
724 4:41:48 Servanty Sandy (FRA) F18-34 (+)
725 4:41:50 Hague Thomas (GBR) M18-34 (+)
726 4:41:51 Dabbagh Nadine (IRL) F35-39 (+)
727 4:41:53 Johnston Leslie (USA) F45-49 (+)
728 4:42:28 Skj?rb?k Magnus (NOR) M18-34 (+)
729 4:42:38 Carter Carol (GBR) F55-59 (+)
730 4:42:42 Perls Mike (GBR) M50-54 (+)
731 4:42:43 Hosty Ged (GBR) M50-54 (+)
732 4:42:53 Macsporran Ally (GBR) M18-34 (+)
733 4:42:59 Guro Landa Eikeland (NOR) F55-59 (+)
734 4:43:05 Van Tonder Sabrina (GBR) F18-34 (+)
735 4:43:05 Smith Graeme (GBR) M40-44 (+)
736 4:43:06 Roth Max (GBR) M35-39 (+)
737 4:43:10 Ferrier Jean-louis (FRA) M70-74 (+)
738 4:43:18 Horvath Renata (HUN) F18-34 (+)
739 4:43:36 Maitre Patrick (FRA) M65-69 (+)
740 4:43:43 Xhurdebise Victor (BEL) M18-34 (+)
741 4:44:03 Smallwood Emma (GBR) F18-34 (+)
742 4:44:14 Cahoreau Sebastien (FRA) M35-39 (+)
743 4:44:31 Gupta Anirban (IND) M40-44 (+)
744 4:44:37 Baertschi Nils (SUI) M40-44 (+)
745 4:44:54 Monks Lynda (IRL) F35-39 (+)
746 4:45:03 Moss Emily (GBR) F18-34 (+)
747 4:45:03 Schiffo Laura (ITA) F45-49 (+)
748 4:45:07 Riley Sarah (USA) F18-34 (+)
749 4:45:14 Degisi Joanna (GBR) F40-44 (+)
750 4:45:15 Italo Carlo Deiro (ITA) M60-64 (+)
751 4:45:21 Mastrodonato Massimo (ITA) M40-44 (+)
752 4:45:28 Gerberding Shana (USA) F35-39 (+)
753 4:45:31 Campbell Thomas (GBR) M60-64 (+)
754 4:45:45 Tracz Kinga (POL) F18-34 (+)
755 4:45:48 Buzinkay Alexander (SVK) M55-59 (+)
756 4:45:49 Lenka Gejdos Mullerova (SVK) F40-44 (+)
757 4:45:53 Guidobaldi Alberto (ITA) M50-54 (+)
758 4:45:53 Male David (GBR) M55-59 (+)
759 4:46:04 Macleod Emma (GBR) F18-34 (+)
760 4:46:29 Gjerde Erlend (NOR) M18-34 (+)
761 4:46:29 Ivan Havard (NOR) M18-34 (+)
762 4:46:35 Bohnenkamp Emily (USA) F18-34 (+)
763 4:46:38 Rafalskyi Maksym (UKR) M35-39 (+)
764 4:46:54 Law Jason (GBR) M40-44 (+)
765 4:47:00 Obstarczyk Andrzej (POL) M60-64 (+)
766 4:47:12 Sumich Jana (AUS) F18-34 (+)
767 4:47:45 Osborne Heather (GBR) F18-34 (+)
768 4:47:51 Cacacho Angie (USA) F35-39 (+)
769 4:47:51 Konrad Wasowicz (POL) M18-34 (+)
770 4:47:52 Deangelo Darcie (USA) F35-39 (+)
771 4:47:58 Richardson Tyler (USA) M18-34 (+)
772 4:48:03 Oliveros Carlos (COL) M18-34 (+)
773 4:48:03 Gengler Kristine (USA) F18-34 (+)
774 4:48:15 Horacek Zdenek (CZE) M35-39 (+)
775 4:48:16 Hajek Jakub (CZE) M35-39 (+)
776 4:48:41 Anna Fabregat Subira (ESP) F18-34 (+)
777 4:48:48 Juan Francisco Hernandez Martinez (ESP) M18-34 (+)
778 4:48:49 Wilson Matthew (IRL) M18-34 (+)
779 4:48:53 Murdick Steven (USA) M65-69 (+)
780 4:48:58 Fjelstad Solrun (NOR) F50-54 (+)
781 4:48:59 Sanchez Cyrille (FRA) M40-44 (+)
782 4:49:00 Stasenis Simas (LTU) M18-34 (+)
783 4:49:18 Romero Bremelin (USA) F40-44 (+)
784 4:49:25 Hanson Jennifer (USA) F18-34 (+)
785 4:49:26 Smallwood Callum (GBR) M18-34 (+)
786 4:49:27 Christmas Geraldine (GBR) F40-44 (+)
787 4:49:27 Digby Gary (GBR) M40-44 (+)
788 4:49:55 Fraser Kerrin (USA) F18-34 (+)
789 4:49:57 Meyer Zvi (ISR) M60-64 (+)
790 4:49:58 Doumas Marc (FRA) M55-59 (+)
791 4:50:29 Hootele Marc (BEL) M40-44 (+)
792 4:51:09 Vongtongsalee Somyot (THA) M55-59 (+)
793 4:51:14 Coutinho Joaquim (POR) M50-54 (+)
794 4:51:19 Reimonen Gaultier (FRA) M18-34 (+)
795 4:51:47 Vlachou Maria (GBR) F18-34 (+)
796 4:51:53 Man Wu Ho (HKG) M60-64 (+)
797 4:51:54 Bartle Sarah (GBR) F18-34 (+)
798 4:51:57 Davies David (GBR) M40-44 (+)
799 4:52:50 Durr Peter (SUI) M35-39 (+)
800 4:52:52 Harris Jeff (USA) M40-44 (+)
801 4:52:57 Laffaire Philippe (FRA) M45-49 (+)
802 4:53:07 Eger Steffi (USA) F45-49 (+)
803 4:53:13 Bassett Sadie (USA) F18-34 (+)
804 4:53:14 Sy Malfa (PHI) F45-49 (+)
805 4:53:14 Cole Robin (USA) F18-34 (+)
806 4:53:58 Yee Shing Choi (HKG) M55-59 (+)
807 4:54:03 Preston Mark (GBR) M50-54 (+)
808 4:54:03 Preston Katherine (GBR) F50-54 (+)
809 4:54:04 Riding Sally (GBR) F50-54 (+)
810 4:54:04 Macpherson Katherine (GBR) F45-49 (+)
811 4:54:05 Jones Fiona (GBR) F40-44 (+)
812 4:54:16 Sapir Gal (ISR) M18-34 (+)
813 4:54:16 Lux Omry (ISR) M18-34 (+)
814 4:54:22 Nicholson Henry (GBR) M40-44 (+)
815 4:54:23 Mackay Steven (GBR) M35-39 (+)
816 4:54:31 Valdesturli Ivano (ITA) M50-54 (+)
817 4:54:32 Mclaughlin William (AUS) M18-34 (+)
818 4:54:33 Yi Ki Tsang (HKG) M18-34 (+)
819 4:54:34 Chi Kim Kum (HKG) M35-39 (+)
820 4:54:42 Cheung Fu-lok (GBR) M45-49 (+)
821 4:54:56 Celnik Carolina (USA) F18-34 (+)
822 4:54:56 Gerlach Beate (GER) F50-54 (+)
823 4:54:57 Oberhansl Frank (GER) M50-54 (+)
824 4:55:01 Servanty Jean Pierre (FRA) M65-69 (+)
825 4:55:12 Tse Fan (GBR) M40-44 (+)
826 4:55:18 Ford Brian (GBR) M50-54 (+)
827 4:55:19 Winship Lucy (GBR) F18-34 (+)
828 4:55:20 Foley Lucy (IRL) F50-54 (+)
829 4:55:31 Langemeijer Mechteld (NED) F35-39 (+)
830 4:55:47 Sivertsen Are (NOR) M50-54 (+)
831 4:56:14 Markakis Antonios (GRE) M50-54 (+)
832 4:56:22 Pasutti Rainer (GER) M60-64 (+)
833 4:56:22 Maseidvag Finn (NOR) M60-64 (+)
834 4:56:34 Adamski Adam (POL) M55-59 (+)
835 4:56:36 Donnelly Ann (IRL) F18-34 (+)
836 4:56:42 Dobernecker Jurgen (GER) M50-54 (+)
837 4:56:57 Roper Phoebe (GBR) F18-34 (+)
838 4:57:01 Ringvold Karen (NOR) F35-39 (+)
839 4:57:08 Larkin Alan (GBR) M55-59 (+)
840 4:57:25 Jurgens Dirk (GER) M50-54 (+)
841 4:57:43 Melv?r Erling (NOR) M35-39 (+)
842 4:58:00 Borghini Benoit (FRA) M45-49 (+)
843 4:58:17 Wareham David (GBR) M45-49 (+)
844 4:58:41 Masuda Miyuki (AUS) F45-49 (+)
845 4:58:50 Chenyu Wei (CHN) M18-34 (+)
846 4:59:34 Rattenbury Molly (GBR) F18-34 (+)
847 4:59:35 Blake Kelly (GBR) F18-34 (+)
848 4:59:36 Hooton Zoe (GBR) F18-34 (+)
849 5:00:05 Nagaraj Karan (GBR) M18-34 (+)
850 5:00:48 Cameron Troy (AUS) M45-49 (+)
851 5:00:56 Pedersen Helle (DEN) F55-59 (+)
852 5:01:00 Theintz Jackie (SUI) F18-34 (+)
853 5:01:02 Blazy Anne (FRA) F40-44 (+)
854 5:01:12 O\'kane Kevin (IRL) M18-34 (+)
855 5:01:25 Nagaraj Chetana (GBR) F50-54 (+)
856 5:02:10 Olga Lucia Luna Barrera (COL) F18-34 (+)
857 5:02:17 Rotariu Sanziana (ROU) F18-34 (+)
858 5:02:17 Trickett Debbie (AUS) F55-59 (+)
859 5:02:39 Berntsen Tinius (NOR) M18-34 (+)
860 5:02:50 Elbaz-starinsky Maor (ISR) M40-44 (+)
861 5:03:19 Baxter Guy (RSA) M55-59 (+)
862 5:03:30 Ari Cleber Fratantonio (BRA) M45-49 (+)
863 5:03:32 Slemdal Harald (NOR) M35-39 (+)
864 5:03:41 Ferguson Lisa (GBR) F55-59 (+)
865 5:03:45 Syrstad Roar (NOR) M50-54 (+)
866 5:03:47 Stenegren Hanna (SWE) F35-39 (+)
867 5:03:47 Liss Hege Syrstad (NOR) F45-49 (+)
868 5:03:48 Peter Thomas (SUI) M35-39 (+)
869 5:04:38 Chambers Hayley (GBR) F18-34 (+)
870 5:04:38 Anderson Gary (GBR) M50-54 (+)
871 5:04:57 Akrill Martina (GBR) F35-39 (+)
872 5:05:46 Rhode Cyrus Jr (USA) M75+ (+)
873 5:06:05 Laudat Patrice (FRA) M65-69 (+)
874 5:06:24 Carla Cristina De Paula Gomes (BRA) F45-49 (+)
875 5:06:52 Harmes Sarah (GBR) F45-49 (+)
876 5:06:52 Daniels Karen (GBR) F55-59 (+)
877 5:07:13 Coudert Clementine (FRA) F18-34 (+)
878 5:07:19 Davis Kevin (USA) M18-34 (+)
879 5:07:23 Pan Hongfei (CHN) M35-39 (+)
880 5:07:45 Lodhi Sonal (GBR) M18-34 (+)
881 5:07:50 Pellegrini Silvia (ITA) F18-34 (+)
882 5:08:21 Morgan Freya (GBR) F18-34 (+)
883 5:08:23 Dhar Kapil (GBR) M40-44 (+)
884 5:08:41 Boschung Kyrill (GER) M18-34 (+)
885 5:08:44 Philipp De Holanda Campos Hein (GER) M18-34 (+)
886 5:09:11 Fernandez Ignasi (ESP) M40-44 (+)
887 5:09:19 Paturel Cecile (FRA) F45-49 (+)
888 5:09:33 Krishna Sri (GBR) M45-49 (+)
889 5:10:07 Henley Natasha (GBR) F18-34 (+)
890 5:10:17 Martin Keisha (USA) F18-34 (+)
891 5:10:35 Ashmore Mark (GBR) M50-54 (+)
892 5:10:37 Foster Mark (GBR) M55-59 (+)
893 5:10:57 Owen Isobel (GBR) F18-34 (+)
894 5:10:58 Owen Kathryn (GBR) F35-39 (+)
895 5:11:07 Takahira Regina (BRA) F45-49 (+)
896 5:11:29 Rosso Edoardo (AUS) M40-44 (+)
896 5:11:29 King Sara (AUS) F45-49 (+)
898 5:11:38 Dybdal Camilla (NOR) F18-34 (+)
899 5:12:11 Horton Julia (GBR) F45-49 (+)
900 5:12:26 Keaney Peter (GBR) M45-49 (+)
901 5:12:32 Beresford Martin (GBR) M40-44 (+)
902 5:12:46 Zhang Tongchen (CHN) M35-39 (+)
903 5:13:40 Orjasniemi Tarja (FIN) F55-59 (+)
904 5:13:42 Saint Tony (GBR) M50-54 (+)
905 5:14:06 Fisher Mary (USA) F35-39 (+)
906 5:14:13 Ulmschneider Klaus-peter (GER) M55-59 (+)
907 5:14:28 Lozinski Artur (POL) M40-44 (+)
908 5:14:29 Bochenek Kinga (POL) F40-44 (+)
909 5:14:31 Mary Jo Johnson (USA) F65-69 (+)
910 5:14:42 Patil Sunita (USA) F50-54 (+)
911 5:15:20 Ovadenko Iurii (UKR) M35-39 (+)
912 5:15:40 Hermansen Rikke (NOR) F18-34 (+)
913 5:15:59 Livingston Rosemary (GBR) F50-54 (+)
914 5:16:21 Samiadji Gunawan (INA) M50-54 (+)
915 5:16:52 Campedelli Guido (ITA) M65-69 (+)
916 5:17:00 Van Thienen Kid (BEL) M55-59 (+)
917 5:17:07 Lene Susann Myrheim (NOR) F35-39 (+)
918 5:17:27 Steven Bonomo Iii (USA) M18-34 (+)
919 5:17:53 Thumpston Lynne (GBR) F55-59 (+)
920 5:17:53 Rufus Anita (GBR) F50-54 (+)
921 5:19:09 Thomas Ron (AUS) M40-44 (+)
922 5:19:20 Perreten Adelheid (SUI) F55-59 (+)
923 5:19:28 Sharma Avinash (IND) M35-39 (+)
924 5:19:42 Hammond Jonathan (GBR) M45-49 (+)
925 5:20:00 Yu Sincere (HKG) F18-34 (+)
926 5:20:07 Bowley Richard (GBR) M45-49 (+)
927 5:20:08 Grandcourt Lisa (GBR) F40-44 (+)
928 5:20:18 Carn Bertrand (FRA) M50-54 (+)
929 5:20:25 Manning Heather (GBR) F18-34 (+)
930 5:21:38 Cheung Vincent (GBR) M18-34 (+)
931 5:22:26 Tor Martin Pedersen (NOR) M18-34 (+)
932 5:23:09 Rostum Borge (NOR) M55-59 (+)
933 5:23:43 Aamodt Oddbjorn (NOR) M55-59 (+)
934 5:25:14 Pause Marie-laure (FRA) F18-34 (+)
935 5:25:15 Serge Philippe Pause (FRA) M55-59 (+)
936 5:26:10 Alison Jane Darlington (GBR) F50-54 (+)
937 5:27:04 Ng Suet Mui Fanny (HKG) F50-54 (+)
938 5:27:04 Davies Gareth (GBR) M18-34 (+)
938 5:27:04 Wu Mun Wah (HKG) M55-59 (+)
940 5:27:08 Fabiana Andrade Fersura (BRA) F35-39 (+)
941 5:27:09 Oswaldo Gomes De Souza Junior (BRA) M35-39 (+)
942 5:27:31 Kumar Rajendra (AUS) M55-59 (+)
943 5:27:37 Nguyen Quang (USA) M18-34 (+)
944 5:28:19 Jaager Enely (EST) F45-49 (+)
945 5:29:19 Mathew Jose (CAN) M60-64 (+)
946 5:30:05 Sifakis Antonios (GRE) M45-49 (+)
947 5:30:46 Spears Amy (USA) F35-39 (+)
948 5:31:09 Potter Laura (GBR) F35-39 (+)
949 5:31:10 Rycroft Elizabeth (GBR) F40-44 (+)
950 5:31:30 Kuznetsov Anatoly (RUS) M60-64 (+)
951 5:31:47 Wu Alan (CAN) M18-34 (+)
952 5:32:06 Ronnow Tor (DEN) M50-54 (+)
953 5:32:29 May Anna (GBR) F18-34 (+)
954 5:35:49 Khosla Sumalee (GBR) F40-44 (+)
955 5:38:44 Gerle Eva (HUN) F40-44 (+)
956 5:38:45 Fennell Shaun (GBR) M18-34 (+)
957 5:41:13 Ulves?ter Torhild (NOR) F55-59 (+)
958 5:46:50 Manso Eduardo (BRA) M35-39 (+)
959 5:46:51 Manso Lucia (BRA) F60-64 (+)
960 5:47:08 Glennmo Johan (SWE) M40-44 (+)
961 5:48:04 Ehrenreich Carmen (GER) F60-64 (+)
962 5:50:30 Flanagan William (USA) M18-34 (+)
963 5:52:33 Price Chris (GBR) M40-44 (+)
964 5:52:59 Postu Andra (USA) F18-34 (+)
965 5:53:13 Wing Yiu Lee (HKG) M50-54 (+)
966 5:54:09 Buisson Loren (FRA) F35-39 (+)
967 5:54:10 Maurent Anthony (FRA) M18-34 (+)
968 5:54:13 Setiabudi Andri (INA) M45-49 (+)
969 5:59:18 Kamat Shripad (GBR) M50-54 (+)
970 5:59:19 Hegde Prashant (GBR) M50-54 (+)
971 6:15:51 Kastelic Elisabeth (AUT) F70-74 (+)
972 6:16:04 Sultan Alexandre (FRA) M35-39 (+)
973 6:53:35 Revi Fayola Sitompul (INA) F40-44 (+)